createdAt,value
2022-08-09T00:00:14.422Z,99218.38
2022-08-09T00:03:10.898Z,99221.28
2022-08-09T00:06:19.252Z,99223.38
2022-08-09T00:08:37.161Z,99221.75
2022-08-09T00:11:24.602Z,99222.78
2022-08-09T00:13:53.282Z,99222.16
2022-08-09T00:16:26.336Z,99218.44
2022-08-09T00:19:09.593Z,99233.75
2022-08-09T00:21:55.577Z,99222.63
2022-08-09T00:24:27.490Z,99228.03
2022-08-09T00:26:56.170Z,99220.97
2022-08-09T00:29:39.476Z,99223.06
2022-08-09T00:32:25.389Z,99223.06
2022-08-09T00:34:56.277Z,99223.31
2022-08-09T00:37:25.442Z,99228.91
2022-08-09T00:40:12.636Z,99228.31
2022-08-09T00:44:15.388Z,99233.50
2022-08-09T00:45:28.716Z,99231.00
2022-08-09T00:47:56.560Z,99231.00
2022-08-09T00:50:24.758Z,99228.53
2022-08-09T00:52:53.812Z,99234.78
2022-08-09T00:56:03.268Z,99234.16
2022-08-09T00:58:09.576Z,99230.63
2022-08-09T01:00:43.737Z,99237.91
2022-08-09T01:03:17.088Z,99237.91
2022-08-09T01:05:55.222Z,99238.34
2022-08-09T01:08:33.495Z,99243.94
2022-08-09T01:11:08.652Z,99237.72
2022-08-09T01:14:00.262Z,99241.44
2022-08-09T01:16:36.994Z,99240.63
2022-08-09T01:19:42.553Z,99242.72
2022-08-09T01:22:54.831Z,99242.94
2022-08-09T01:25:51.117Z,99239.44
2022-08-09T01:28:22.551Z,99237.81
2022-08-09T01:30:58.996Z,99233.22
2022-08-09T01:33:34.683Z,99239.44
2022-08-09T01:36:11.922Z,99233.22
2022-08-09T01:38:46.661Z,99244.00
2022-08-09T01:41:18.517Z,99238.81
2022-08-09T01:43:55.993Z,99244.47
2022-08-09T01:46:33.850Z,99240.72
2022-08-09T01:49:23.977Z,99236.38
2022-08-09T01:51:57.296Z,99239.06
2022-08-09T01:54:32.830Z,99241.97
2022-08-09T01:57:10.086Z,99239.50
2022-08-09T01:59:51.830Z,99237.88
2022-08-09T02:02:31.331Z,99248.03
2022-08-09T02:05:15.165Z,99249.06
2022-08-09T02:08:39.148Z,99250.72
2022-08-09T02:10:51.154Z,99244.28
2022-08-09T02:13:25.965Z,99248.03
2022-08-09T02:16:07.698Z,99251.75
2022-08-09T02:18:38.301Z,99250.34
2022-08-09T02:21:21.862Z,99244.75
2022-08-09T02:23:54.794Z,99247.44
2022-08-09T02:26:27.464Z,99245.78
2022-08-09T02:28:59.907Z,99250.94
2022-08-09T02:31:35.441Z,99252.00
2022-08-09T02:34:13.339Z,99249.53
2022-08-09T02:36:46.665Z,99244.16
2022-08-09T02:39:33.372Z,99242.47
2022-08-09T02:42:16.789Z,99252.44
2022-08-09T02:44:52.841Z,99245.16
2022-08-09T02:47:23.430Z,99246.22
2022-08-09T02:50:02.062Z,99246.22
2022-08-09T02:52:38.456Z,99251.81
2022-08-09T02:55:19.857Z,99252.06
2022-08-09T02:58:00.762Z,99245.03
2022-08-09T03:00:57.626Z,99243.41
2022-08-09T03:04:05.757Z,99255.78
2022-08-09T03:06:17.451Z,99253.31
2022-08-09T03:08:46.572Z,99258.94
2022-08-09T03:12:04.610Z,99251.28
2022-08-09T03:14:06.474Z,99256.91
2022-08-09T03:16:41.671Z,99250.69
2022-08-09T03:19:14.585Z,99260.44
2022-08-09T03:22:03.151Z,99265.00
2022-08-09T03:24:42.764Z,99259.63
2022-08-09T03:27:21.526Z,99260.84
2022-08-09T03:30:00.998Z,99260.03
2022-08-09T03:32:34.779Z,99260.25
2022-08-09T03:35:15.116Z,99265.63
2022-08-09T03:37:55.916Z,99272.94
2022-08-09T03:40:30.855Z,99259.28
2022-08-09T03:42:58.737Z,99265.47
2022-08-09T03:46:04.251Z,99262.78
2022-08-09T03:48:19.097Z,99260.09
2022-08-09T03:50:59.745Z,99263.84
2022-08-09T03:53:32.348Z,99265.94
2022-08-09T03:56:05.679Z,99251.88
2022-08-09T03:58:33.582Z,99260.56
2022-08-09T04:01:02.470Z,99257.25
2022-08-09T04:03:46.467Z,99260.16
2022-08-09T04:06:19.074Z,99257.25
2022-08-09T04:08:48.253Z,99257.69
2022-08-09T04:11:21.250Z,99259.34
2022-08-09T04:14:53.016Z,99260.38
2022-08-09T04:16:40.012Z,99266.34
2022-08-09T04:19:11.115Z,99267.19
2022-08-09T04:21:45.265Z,99265.94
2022-08-09T04:24:15.041Z,99266.75
2022-08-09T04:26:42.580Z,99265.47
2022-08-09T04:29:14.827Z,99265.47
2022-08-09T04:31:47.352Z,99270.03
2022-08-09T04:34:18.838Z,99270.66
2022-08-09T04:36:50.287Z,99267.78
2022-08-09T04:39:18.240Z,99273.09
2022-08-09T04:41:46.425Z,99276.56
2022-08-09T04:44:14.759Z,99277.31
2022-08-09T04:46:59.544Z,99276.06
2022-08-09T04:49:52.883Z,99279.34
2022-08-09T04:52:27.035Z,99288.03
2022-08-09T04:54:56.066Z,99290.94
2022-08-09T04:57:25.232Z,99292.66
2022-08-09T04:59:55.337Z,99287.69
2022-08-09T05:02:27.116Z,99286.28
2022-08-09T05:04:56.185Z,99288.38
2022-08-09T05:07:25.074Z,99288.38
2022-08-09T05:09:57.691Z,99291.50
2022-08-09T05:12:29.892Z,99292.59
2022-08-09T05:14:58.709Z,99292.84
2022-08-09T05:18:39.766Z,99288.44
2022-08-09T05:20:13.771Z,99298.97
2022-08-09T05:23:53.988Z,99294.06
2022-08-09T05:25:32.519Z,99300.47
2022-08-09T05:28:00.211Z,99299.44
2022-08-09T05:30:30.146Z,99299.59
2022-08-09T05:33:00.715Z,99300.00
2022-08-09T05:35:30.352Z,99294.06
2022-08-09T05:38:06.586Z,99301.06
2022-08-09T05:40:35.700Z,99303.59
2022-08-09T05:43:04.584Z,99294.94
2022-08-09T05:45:43.618Z,99291.63
2022-08-09T05:48:19.601Z,99304.84
2022-08-09T05:51:30.270Z,99298.66
2022-08-09T05:53:56.785Z,99299.44
2022-08-09T05:56:28.093Z,99295.69
2022-08-09T05:58:58.475Z,99296.28
2022-08-09T06:01:33.984Z,99306.00
2022-08-09T06:04:12.123Z,99303.75
2022-08-09T06:06:45.165Z,99299.78
2022-08-09T06:09:53.825Z,99306.59
2022-08-09T06:12:06.936Z,99308.25
2022-08-09T06:14:35.489Z,99308.88
2022-08-09T06:17:09.184Z,99303.50
2022-08-09T06:19:37.673Z,99305.56
2022-08-09T06:22:06.759Z,99311.56
2022-08-09T06:24:42.854Z,99307.22
2022-08-09T06:27:10.309Z,99308.47
2022-08-09T06:29:47.673Z,99304.97
2022-08-09T06:32:59.557Z,99302.28
2022-08-09T06:35:13.318Z,99303.91
2022-08-09T06:37:52.871Z,99307.44
2022-08-09T06:40:28.767Z,99309.28
2022-08-09T06:42:58.025Z,99310.97
2022-08-09T06:46:07.249Z,99307.22
2022-08-09T06:48:16.398Z,99293.53
2022-08-09T06:50:44.767Z,99301.41
2022-08-09T06:53:13.748Z,99311.09
2022-08-09T06:55:41.709Z,99305.94
2022-08-09T07:00:49.027Z,99304.69
2022-08-09T07:01:03.441Z,99311.09
2022-08-09T07:03:39.334Z,99308.25
2022-08-09T07:06:07.758Z,99298.09
2022-08-09T07:08:37.243Z,99310.50
2022-08-09T07:11:07.999Z,99316.94
2022-08-09T07:13:45.045Z,99319.25
2022-08-09T07:16:39.439Z,99322.59
2022-08-09T07:19:15.419Z,99317.19
2022-08-09T07:21:55.890Z,99315.34
2022-08-09T07:24:32.861Z,99323.44
2022-08-09T07:27:26.485Z,99316.56
2022-08-09T07:29:59.868Z,99323.13
2022-08-09T07:32:32.589Z,99323.63
2022-08-09T07:35:10.794Z,99326.53
2022-08-09T07:37:45.649Z,99328.19
2022-08-09T07:40:17.468Z,99332.69
2022-08-09T07:42:56.150Z,99331.81
2022-08-09T07:45:39.244Z,99334.06
2022-08-09T07:48:25.383Z,99330.31
2022-08-09T07:51:09.328Z,99336.72
2022-08-09T07:54:06.607Z,99330.88
2022-08-09T07:56:39.031Z,99332.53
2022-08-09T07:59:34.599Z,99336.66
2022-08-09T08:02:04.812Z,99326.28
2022-08-09T08:04:34.187Z,99334.50
2022-08-09T08:07:15.198Z,99333.91
2022-08-09T08:10:08.348Z,99334.13
2022-08-09T08:12:43.647Z,99327.72
2022-08-09T08:15:24.358Z,99333.69
2022-08-09T08:17:58.022Z,99337.88
2022-08-09T08:20:30.408Z,99334.72
2022-08-09T08:23:06.706Z,99337.00
2022-08-09T08:25:48.287Z,99327.84
2022-08-09T08:28:18.137Z,99344.47
2022-08-09T08:30:53.949Z,99342.38
2022-08-09T08:33:24.098Z,99344.81
2022-08-09T08:35:59.642Z,99341.31
2022-08-09T08:38:29.411Z,99339.03
2022-08-09T08:40:57.958Z,99339.84
2022-08-09T08:43:27.870Z,99341.91
2022-08-09T08:46:09.872Z,99346.28
2022-08-09T08:48:53.609Z,99342.31
2022-08-09T08:51:23.186Z,99343.75
2022-08-09T08:54:03.515Z,99342.06
2022-08-09T08:56:39.882Z,99345.16
2022-08-09T08:59:19.251Z,99347.03
2022-08-09T09:01:52.931Z,99347.25
2022-08-09T09:04:41.171Z,99341.44
2022-08-09T09:07:15.811Z,99338.16
2022-08-09T09:10:02.238Z,99339.56
2022-08-09T09:12:35.630Z,99344.06
2022-08-09T09:15:06.420Z,99340.53
2022-08-09T09:17:49.243Z,99338.84
2022-08-09T09:20:21.380Z,99337.56
2022-08-09T09:22:57.310Z,99345.69
2022-08-09T09:26:03.773Z,99347.19
2022-08-09T09:29:02.112Z,99342.25
2022-08-09T09:32:03.861Z,99343.84
2022-08-09T09:34:14.486Z,99351.25
2022-08-09T09:36:50.940Z,99353.31
2022-08-09T09:39:25.753Z,99344.22
2022-08-09T09:42:24.420Z,99356.41
2022-08-09T09:45:03.371Z,99348.34
2022-08-09T09:47:32.540Z,99341.06
2022-08-09T09:50:14.731Z,99347.31
2022-08-09T09:52:54.425Z,99340.22
2022-08-09T09:55:31.396Z,99347.03
2022-08-09T09:58:16.188Z,99349.97
2022-08-09T10:00:58.905Z,99345.78
2022-08-09T10:03:43.588Z,99338.34
2022-08-09T10:06:12.991Z,99340.81
2022-08-09T10:08:54.936Z,99334.03
2022-08-09T10:12:00.527Z,99331.47
2022-08-09T10:14:33.165Z,99323.09
2022-08-09T10:17:40.407Z,99316.69
2022-08-09T10:20:00.446Z,99322.28
2022-08-09T10:22:48.197Z,99323.25
2022-08-09T10:25:15.732Z,99316.84
2022-08-09T10:27:55.891Z,99325.72
2022-08-09T10:33:29.950Z,99319.81
2022-08-09T10:36:09.657Z,99311.72
2022-08-09T10:38:56.070Z,99321.22
2022-08-09T10:41:25.094Z,99320.34
2022-08-09T10:44:01.035Z,99318.25
2022-08-09T10:46:57.200Z,99314.94
2022-08-09T10:49:51.366Z,99317.03
2022-08-09T10:52:44.764Z,99313.75
2022-08-09T10:55:26.725Z,99313.69
2022-08-09T10:58:00.451Z,99308.66
2022-08-09T11:00:31.344Z,99311.59
2022-08-09T11:03:14.102Z,99312.78
2022-08-09T11:06:26.223Z,99307.31
2022-08-09T11:08:54.176Z,99303.13
2022-08-09T11:11:24.449Z,99299.41
2022-08-09T11:14:31.812Z,99293.53
2022-08-09T11:17:00.151Z,99299.31
2022-08-09T11:20:10.081Z,99299.66
2022-08-09T11:22:55.589Z,99297.56
2022-08-09T11:25:44.575Z,99293.38
2022-08-09T11:28:34.684Z,99292.91
2022-08-09T11:31:48.683Z,99290.81
2022-08-09T11:34:21.942Z,99291.28
2022-08-09T11:36:50.578Z,99290.09
2022-08-09T11:39:18.964Z,99282.22
2022-08-09T11:41:48.883Z,99289.13
2022-08-09T11:44:16.521Z,99289.78
2022-08-09T11:46:57.199Z,99284.88
2022-08-09T11:50:55.786Z,99295.25
2022-08-09T11:53:16.425Z,99294.00
2022-08-09T11:55:53.878Z,99295.63
2022-08-09T11:58:33.147Z,99297.28
2022-08-09T12:01:08.757Z,99291.88
2022-08-09T12:03:57.272Z,99289.78
2022-08-09T12:06:31.987Z,99291.59
2022-08-09T12:09:03.625Z,99290.09
2022-08-09T12:11:37.845Z,99283.06
2022-08-09T12:14:36.747Z,99283.06
2022-08-09T12:17:27.877Z,99285.16
2022-08-09T12:20:03.786Z,99286.19
2022-08-09T12:22:32.022Z,99291.81
2022-08-09T12:25:14.929Z,99283.50
2022-08-09T12:28:58.185Z,99279.38
2022-08-09T12:30:35.343Z,99288.53
2022-08-09T12:33:07.313Z,99272.81
2022-08-09T12:35:40.121Z,99286.06
2022-08-09T12:38:37.886Z,99288.97
2022-08-09T12:41:07.205Z,99286.06
2022-08-09T12:44:05.930Z,99286.06
2022-08-09T12:46:25.384Z,99290.63
2022-08-09T12:48:55.438Z,99294.28
2022-08-09T12:51:52.828Z,99288.19
2022-08-09T12:54:14.093Z,99282.13
2022-08-09T12:56:50.965Z,99292.47
2022-08-09T12:59:21.733Z,99284.59
2022-08-09T13:02:09.895Z,99283.41
2022-08-09T13:04:38.927Z,99289.66
2022-08-09T13:07:19.334Z,99282.59
2022-08-09T13:10:01.212Z,99283.06
2022-08-09T13:12:29.575Z,99279.78
2022-08-09T13:15:09.058Z,99275.41
2022-08-09T13:18:03.319Z,99280.19
2022-08-09T13:20:37.372Z,99290.75
2022-08-09T13:24:16.028Z,99278.09
2022-08-09T13:26:06.691Z,99279.78
2022-08-09T13:28:39.771Z,99281.88
2022-08-09T13:32:20.168Z,99278.09
2022-08-09T13:33:59.931Z,99281.41
2022-08-09T13:36:40.440Z,99280.38
2022-08-09T13:41:17.423Z,99276.00
2022-08-09T13:42:12.773Z,99270.50
2022-08-09T13:44:42.844Z,99277.06
2022-08-09T13:47:26.412Z,99269.81
2022-08-09T13:50:01.808Z,99271.22
2022-08-09T13:52:30.799Z,99276.38
2022-08-09T13:54:59.287Z,99275.56
2022-08-09T13:57:36.555Z,99275.56
2022-08-09T14:00:15.834Z,99271.09
2022-08-09T14:03:04.297Z,99279.97
2022-08-09T14:05:56.892Z,99281.88
2022-08-09T14:08:22.315Z,99278.56
2022-08-09T14:10:52.968Z,99281.06
2022-08-09T14:14:14.818Z,99285.97
2022-08-09T14:16:14.063Z,99281.41
2022-08-09T14:18:49.656Z,99285.50
2022-08-09T14:21:23.384Z,99280.38
2022-08-09T14:23:56.251Z,99283.06
2022-08-09T14:26:32.890Z,99282.22
2022-08-09T14:29:07.918Z,99286.19
2022-08-09T14:31:54.527Z,99279.31
2022-08-09T14:34:31.423Z,99271.69
2022-08-09T14:37:02.852Z,99276.59
2022-08-09T14:39:45.620Z,99278.63
2022-08-09T14:42:40.650Z,99282.72
2022-08-09T14:46:39.361Z,99282.50
2022-08-09T14:48:00.194Z,99273.47
2022-08-09T14:50:32.442Z,99275.09
2022-08-09T14:53:01.950Z,99272.19
2022-08-09T14:55:32.527Z,99270.22
2022-08-09T14:58:02.971Z,99274.94
2022-08-09T15:00:34.179Z,99276.97
2022-08-09T15:03:08.085Z,99273.22
2022-08-09T15:05:37.405Z,99278.97
2022-08-09T15:08:06.128Z,99278.97
2022-08-09T15:10:38.380Z,99270.88
2022-08-09T15:13:08.981Z,99273.22
2022-08-09T15:15:39.234Z,99271.34
2022-08-09T15:18:12.357Z,99274.03
2022-08-09T15:21:57.232Z,99268.19
2022-08-09T15:24:01.406Z,99273.56
2022-08-09T15:26:28.374Z,99277.72
2022-08-09T15:29:04.001Z,99270.06
2022-08-09T15:31:40.755Z,99281.22
2022-08-09T15:34:32.837Z,99279.56
2022-08-09T15:36:58.278Z,99278.16
2022-08-09T15:39:34.789Z,99276.97
2022-08-09T15:42:14.996Z,99283.63
2022-08-09T15:44:42.917Z,99281.53
2022-08-09T15:47:14.531Z,99285.28
2022-08-09T15:50:03.746Z,99280.72
2022-08-09T15:52:38.134Z,99281.16
2022-08-09T15:55:09.494Z,99279.06
2022-08-09T15:57:44.358Z,99273.91
2022-08-09T16:00:25.386Z,99277.06
2022-08-09T16:02:56.217Z,99280.81
2022-08-09T16:05:47.619Z,99271.66
2022-08-09T16:08:29.663Z,99284.91
2022-08-09T16:11:03.246Z,99277.50
2022-08-09T16:14:05.334Z,99279.75
2022-08-09T16:16:19.319Z,99279.13
2022-08-09T16:18:47.714Z,99269.84
2022-08-09T16:21:17.805Z,99281.69
2022-08-09T16:23:55.729Z,99277.13
2022-08-09T16:26:33.827Z,99279.59
2022-08-09T16:29:11.085Z,99272.53
2022-08-09T16:32:17.662Z,99279.97
2022-08-09T16:34:56.060Z,99283.25
2022-08-09T16:37:54.992Z,99276.63
2022-08-09T16:40:11.228Z,99281.53
2022-08-09T16:42:44.985Z,99284.44
2022-08-09T16:45:18.619Z,99286.34
2022-08-09T16:48:50.500Z,99283.63
2022-08-09T16:50:38.455Z,99279.31
2022-08-09T16:53:08.710Z,99279.53
2022-08-09T16:55:58.254Z,99279.31
2022-08-09T16:58:27.128Z,99294.41
2022-08-09T17:00:55.113Z,99286.94
2022-08-09T17:03:23.807Z,99290.22
2022-08-09T17:06:07.239Z,99291.03
2022-08-09T17:09:01.576Z,99292.69
2022-08-09T17:11:40.256Z,99285.28
2022-08-09T17:14:25.730Z,99294.19
2022-08-09T17:17:02.855Z,99298.78
2022-08-09T17:20:06.164Z,99300.03
2022-08-09T17:22:24.811Z,99294.88
2022-08-09T17:25:02.989Z,99301.91
2022-08-09T17:27:33.587Z,99304.00
2022-08-09T17:30:04.906Z,99301.91
2022-08-09T17:32:37.768Z,99301.47
2022-08-09T17:35:12.155Z,99303.09
2022-08-09T17:38:02.763Z,99302.63
2022-08-09T17:40:32.128Z,99308.88
2022-08-09T17:43:10.902Z,99307.44
2022-08-09T17:46:04.284Z,99308.03
2022-08-09T17:48:38.506Z,99305.94
2022-08-09T17:51:18.526Z,99315.31
2022-08-09T17:53:54.709Z,99314.69
2022-08-09T17:56:26.602Z,99318.47
2022-08-09T17:58:57.659Z,99315.97
2022-08-09T18:01:25.407Z,99323.25
2022-08-09T18:04:08.984Z,99329.69
2022-08-09T18:06:37.903Z,99323.47
2022-08-09T18:09:06.580Z,99332.63
2022-08-09T18:12:05.611Z,99328.28
2022-08-09T18:14:27.090Z,99329.34
2022-08-09T18:16:54.644Z,99332.22
2022-08-09T18:20:56.018Z,99334.09
2022-08-09T18:22:13.347Z,99340.53
2022-08-09T18:24:47.769Z,99344.28
2022-08-09T18:27:49.372Z,99342.41
2022-08-09T18:30:38.265Z,99350.50
2022-08-09T18:32:54.087Z,99344.06
2022-08-09T18:35:59.556Z,99346.97
2022-08-09T18:38:12.619Z,99357.28
2022-08-09T18:40:43.047Z,99360.84
2022-08-09T18:43:13.137Z,99360.63
2022-08-09T18:46:50.843Z,99359.00
2022-08-09T18:48:32.718Z,99358.13
2022-08-09T18:51:01.321Z,99361.69
2022-08-09T18:53:56.528Z,99359.00
2022-08-09T18:56:20.044Z,99367.06
2022-08-09T18:58:56.665Z,99362.69
2022-08-09T19:01:25.891Z,99365.84
2022-08-09T19:04:06.153Z,99363.16
2022-08-09T19:06:38.414Z,99371.25
2022-08-09T19:09:07.591Z,99367.34
2022-08-09T19:11:38.686Z,99368.38
2022-08-09T19:14:09.166Z,99370.03
2022-08-09T19:16:37.909Z,99368.38
2022-08-09T19:19:21.355Z,99367.81
2022-08-09T19:22:06.642Z,99370.50
2022-08-09T19:25:09.526Z,99368.84
2022-08-09T19:27:28.642Z,99378.00
2022-08-09T19:30:22.344Z,99375.03
2022-08-09T19:32:44.845Z,99373.41
2022-08-09T19:35:12.446Z,99379.84
2022-08-09T19:37:54.408Z,99380.09
2022-08-09T19:40:33.384Z,99373.03
2022-08-09T19:43:05.351Z,99367.03
2022-08-09T19:45:38.944Z,99374.09
2022-08-09T19:48:10.760Z,99364.34
2022-08-09T19:50:48.901Z,99382.59
2022-08-09T19:53:20.656Z,99366.44
2022-08-09T19:56:03.261Z,99371.81
2022-08-09T19:58:34.868Z,99377.22
2022-08-09T20:01:04.094Z,99377.22
2022-08-09T20:04:18.360Z,99380.75
2022-08-09T20:06:22.447Z,99382.59
2022-08-09T20:08:56.666Z,99384.50
2022-08-09T20:11:26.853Z,99384.50
2022-08-09T20:13:56.112Z,99377.22
2022-08-09T20:16:34.502Z,99379.91
2022-08-09T20:19:49.235Z,99381.78
2022-08-09T20:21:57.463Z,99386.38
2022-08-09T20:24:31.776Z,99382.25
2022-08-09T20:27:05.697Z,99380.16
2022-08-09T20:29:38.640Z,99386.59
2022-08-09T20:32:29.332Z,99377.22
2022-08-09T20:34:59.690Z,99387.19
2022-08-09T20:38:19.096Z,99394.88
2022-08-09T20:40:24.837Z,99387.25
2022-08-09T20:43:12.026Z,99389.13
2022-08-09T20:46:00.038Z,99398.50
2022-08-09T20:48:31.251Z,99391.44
2022-08-09T20:51:03.126Z,99392.72
2022-08-09T20:53:37.288Z,99401.41
2022-08-09T20:56:08.856Z,99387.13
2022-08-09T20:58:38.014Z,99394.13
2022-08-09T21:01:32.662Z,99395.19
2022-08-09T21:04:07.868Z,99396.22
2022-08-09T21:06:44.073Z,99397.28
2022-08-09T21:09:13.876Z,99389.41
2022-08-09T21:14:31.615Z,99398.91
2022-08-09T21:17:00.355Z,99395.41
2022-08-09T21:20:18.716Z,99397.91
2022-08-09T21:22:35.716Z,99402.69
2022-08-09T21:25:22.325Z,99410.75
2022-08-09T21:27:53.461Z,99405.59
2022-08-09T21:30:23.956Z,99405.19
2022-08-09T21:32:53.181Z,99410.22
2022-08-09T21:35:21.879Z,99413.59
2022-08-09T21:37:58.838Z,99409.03
2022-08-09T21:40:30.442Z,99407.75
2022-08-09T21:42:59.724Z,99403.41
2022-08-09T21:45:28.551Z,99404.44
2022-08-09T21:47:58.994Z,99409.03
2022-08-09T21:50:39.010Z,99408.19
2022-08-09T21:53:23.824Z,99406.53
2022-08-09T21:55:58.486Z,99406.53
2022-08-09T21:58:29.237Z,99411.31
2022-08-09T22:00:59.680Z,99410.72
2022-08-09T22:03:28.179Z,99409.91
2022-08-09T22:05:57.845Z,99407.00
2022-08-09T22:08:26.058Z,99404.91
2022-08-09T22:11:49.670Z,99395.16
2022-08-09T22:13:45.749Z,99399.53
2022-08-09T22:16:13.421Z,99394.13
2022-08-09T22:18:53.543Z,99394.56
2022-08-09T22:21:27.349Z,99394.56
2022-08-09T22:24:17.087Z,99393.94
2022-08-09T22:26:51.147Z,99399.59
2022-08-09T22:29:24.048Z,99402.50
2022-08-09T22:31:57.972Z,99396.50
2022-08-09T22:34:26.833Z,99401.28
2022-08-09T22:36:55.995Z,99392.13
2022-08-09T22:39:57.070Z,99398.38
2022-08-09T22:42:21.023Z,99395.44
2022-08-09T22:45:00.376Z,99393.00
2022-08-09T22:48:30.228Z,99397.97
2022-08-09T22:50:32.199Z,99394.25
2022-08-09T22:53:03.741Z,99397.16
2022-08-09T22:56:06.500Z,99395.28
2022-08-09T22:58:32.361Z,99390.72
2022-08-09T23:01:03.173Z,99389.91
2022-08-09T23:04:05.627Z,99394.25
2022-08-09T23:06:29.865Z,99390.13
2022-08-09T23:09:06.333Z,99390.13
2022-08-09T23:11:34.400Z,99386.00
2022-08-09T23:14:03.553Z,99392.19
2022-08-09T23:16:31.922Z,99392.44
2022-08-09T23:18:59.937Z,99393.47
2022-08-09T23:21:33.258Z,99394.53
2022-08-09T23:24:06.090Z,99393.47
2022-08-09T23:26:38.709Z,99386.03
2022-08-09T23:29:09.989Z,99386.47
2022-08-09T23:31:37.673Z,99387.31
2022-08-09T23:34:05.533Z,99381.91
2022-08-09T23:36:34.788Z,99387.31
2022-08-09T23:39:04.878Z,99390.81
2022-08-09T23:41:32.684Z,99385.63
2022-08-09T23:44:01.875Z,99384.00
2022-08-09T23:46:31.319Z,99383.41
2022-08-09T23:49:00.008Z,99391.25
2022-08-09T23:51:28.174Z,99380.25
2022-08-09T23:54:02.608Z,99384.00
2022-08-09T23:56:52.323Z,99380.50
2022-08-09T23:59:21.364Z,99388.31
